Time;durP1;ratioP1;P1;durP2;ratioP2;P2;SDS_P1;SDS_P2;PMS_P1;PMS_P2;Temp;Humidity;BMP_temperature;BMP_pressure;BME280_temperature;BME280_humidity;BME280_pressure;Samples;Min_cycle;Max_cycle;Signal;HPM_P1;HPM_P2
2022/09/29 00:00:34;;;;;;;;;3.00;3.00;;;;;21.77;50.70;99176.52;110451;1264;13948;-59
2022/09/29 00:03:21;;;;;;;;;5.00;5.00;;;;;21.78;50.71;99178.89;110401;1264;14445;-60
2022/09/29 00:05:49;;;;;;;;;6.00;5.00;;;;;21.77;50.63;99176.13;110450;1264;13756;-58
2022/09/29 00:08:16;;;;;;;;;4.00;4.00;;;;;21.78;50.66;99175.33;110500;1264;12375;-59
2022/09/29 00:10:43;;;;;;;;;3.67;3.67;;;;;21.77;50.74;99174.67;110444;1262;13358;-58
2022/09/29 00:13:11;;;;;;;;;5.00;5.00;;;;;21.78;50.71;99180.03;110473;1264;13075;-56
2022/09/29 00:15:38;;;;;;;;;6.67;5.67;;;;;21.77;50.66;99180.07;110454;1265;13894;-60
2022/09/29 00:18:07;;;;;;;;;5.00;3.67;;;;;21.79;50.66;99179.39;110458;1264;13616;-60
2022/09/29 00:20:34;;;;;;;;;3.67;3.67;;;;;21.79;50.61;99177.38;110510;1265;12959;-61
2022/09/29 00:23:02;;;;;;;;;5.67;4.33;;;;;21.78;50.64;99180.86;110456;1264;13067;-56
2022/09/29 00:25:29;;;;;;;;;3.00;3.00;;;;;21.78;50.59;99181.06;110385;1265;13655;-59
2022/09/29 00:27:56;;;;;;;;;3.00;3.00;;;;;21.78;50.60;99180.14;110362;1264;14058;-58
2022/09/29 00:30:24;;;;;;;;;3.00;3.00;;;;;21.79;50.61;99182.95;110359;1265;13688;-58
2022/09/29 00:32:51;;;;;;;;;3.00;3.00;;;;;21.80;50.59;99186.52;110423;1264;14300;-58
2022/09/29 00:35:19;;;;;;;;;2.00;2.00;;;;;21.79;50.58;99183.16;110152;1265;12609;-57
2022/09/29 00:37:46;;;;;;;;;3.00;3.00;;;;;21.79;50.66;99184.92;110371;1265;12946;-60
2022/09/29 00:40:14;;;;;;;;;2.67;2.67;;;;;21.79;50.59;99184.75;110380;1265;18258;-60
2022/09/29 00:42:41;;;;;;;;;3.00;3.00;;;;;21.79;50.50;99185.39;110392;1265;12697;-60
2022/09/29 00:45:08;;;;;;;;;6.00;6.00;;;;;21.78;50.46;99186.48;110359;1265;14134;-59
2022/09/29 00:47:36;;;;;;;;;3.67;3.00;;;;;21.78;50.49;99187.11;110398;1264;13167;-59
2022/09/29 00:50:03;;;;;;;;;3.00;3.00;;;;;21.78;50.59;99189.68;110418;1265;12871;-59
2022/09/29 00:52:31;;;;;;;;;3.00;3.00;;;;;21.79;50.47;99191.88;110347;1265;12977;-59
2022/09/29 00:54:58;;;;;;;;;3.00;3.00;;;;;21.79;50.52;99194.40;110369;1264;13987;-60
2022/09/29 00:57:26;;;;;;;;;3.67;3.00;;;;;21.79;50.47;99196.21;110450;1264;13222;-57
2022/09/29 00:59:53;;;;;;;;;6.00;3.00;;;;;21.78;50.47;99191.61;110504;1264;14246;-59
2022/09/29 01:02:20;;;;;;;;;3.00;3.00;;;;;21.78;50.37;99194.75;110498;1264;13147;-59
2022/09/29 01:04:48;;;;;;;;;5.00;5.00;;;;;21.79;50.34;99193.19;110378;1265;13800;-60
2022/09/29 01:07:15;;;;;;;;;2.00;2.00;;;;;21.78;50.38;99190.39;110325;1264;13911;-61
2022/09/29 01:09:43;;;;;;;;;2.33;2.33;;;;;21.79;50.34;99197.55;110367;1265;14041;-59
2022/09/29 01:12:10;;;;;;;;;3.67;2.67;;;;;21.78;50.36;99198.31;110398;1265;13674;-58
2022/09/29 01:14:37;;;;;;;;;3.00;3.00;;;;;21.79;50.32;99202.12;110477;1264;13210;-59
2022/09/29 01:17:05;;;;;;;;;3.00;3.00;;;;;21.78;50.34;99201.51;110475;1264;12932;-60
2022/09/29 01:19:32;;;;;;;;;3.00;3.00;;;;;21.77;50.34;99196.48;110464;1264;13594;-59
2022/09/29 01:22:00;;;;;;;;;5.00;3.00;;;;;21.78;50.33;99196.17;110359;1264;13079;-58
2022/09/29 01:24:27;;;;;;;;;5.00;5.00;;;;;21.78;50.31;99200.50;110313;1264;13351;-61
2022/09/29 01:26:55;;;;;;;;;2.00;2.00;;;;;21.78;50.34;99201.30;110350;1265;13342;-57
2022/09/29 01:29:22;;;;;;;;;2.00;2.00;;;;;21.78;50.32;99200.70;110498;1264;12939;-61
2022/09/29 01:31:50;;;;;;;;;3.00;3.00;;;;;21.78;50.31;99204.95;110438;1264;13226;-58
2022/09/29 01:34:17;;;;;;;;;2.00;2.00;;;;;21.77;50.32;99204.66;110360;1265;14169;-57
2022/09/29 01:36:45;;;;;;;;;2.00;2.00;;;;;21.78;50.34;99208.05;110372;1265;13811;-59
2022/09/29 01:39:12;;;;;;;;;3.00;3.00;;;;;21.78;50.24;99209.64;110340;1265;13726;-60
2022/09/29 01:41:39;;;;;;;;;5.00;3.00;;;;;21.78;50.31;99213.08;110380;1265;18194;-59
2022/09/29 01:44:07;;;;;;;;;3.00;3.00;;;;;21.79;50.24;99208.80;110505;1264;16632;-60
2022/09/29 01:46:34;;;;;;;;;2.00;2.00;;;;;21.77;50.27;99211.54;110365;1265;13261;-58
2022/09/29 01:49:02;;;;;;;;;5.00;4.33;;;;;21.78;50.29;99209.91;110287;1264;12920;-59
2022/09/29 01:51:29;;;;;;;;;2.00;2.00;;;;;21.77;50.32;99211.37;110367;1264;13168;-60
2022/09/29 01:53:56;;;;;;;;;2.50;2.50;;;;;21.77;50.21;99217.38;110486;1264;13150;-61
2022/09/29 01:56:24;;;;;;;;;3.00;3.00;;;;;21.78;50.34;99212.41;110499;1265;12685;-59
2022/09/29 01:58:51;;;;;;;;;3.00;3.00;;;;;21.78;50.23;99215.30;110411;1265;13765;-59
2022/09/29 02:01:19;;;;;;;;;2.67;2.00;;;;;21.78;50.18;99215.52;110372;1264;13362;-58
2022/09/29 02:03:46;;;;;;;;;2.00;2.00;;;;;21.77;50.13;99217.45;110417;1265;12513;-59
2022/09/29 02:06:14;;;;;;;;;2.00;2.00;;;;;21.77;50.18;99218.45;110471;1264;13140;-59
2022/09/29 02:08:41;;;;;;;;;3.67;3.67;;;;;21.77;50.17;99228.33;110387;1265;15008;-58
2022/09/29 02:11:08;;;;;;;;;3.00;3.00;;;;;21.77;50.10;99228.86;110412;1264;13104;-59
2022/09/29 02:13:36;;;;;;;;;3.00;3.00;;;;;21.77;50.06;99230.12;110473;1264;13723;-59
2022/09/29 02:16:03;;;;;;;;;3.00;3.00;;;;;21.77;50.09;99235.96;110476;1264;13453;-58
2022/09/29 02:18:31;;;;;;;;;3.00;2.67;;;;;21.76;50.04;99243.84;110349;1265;13834;-59
2022/09/29 02:20:58;;;;;;;;;5.00;2.33;;;;;21.76;50.01;99243.34;110342;1265;13402;-59
2022/09/29 02:23:26;;;;;;;;;2.00;2.00;;;;;21.77;50.03;99251.83;110504;1264;12783;-59
2022/09/29 02:25:53;;;;;;;;;2.00;2.00;;;;;21.77;50.10;99253.63;110472;1265;13672;-59
2022/09/29 02:28:20;;;;;;;;;3.00;3.00;;;;;21.76;50.01;99257.34;110437;1264;13500;-60
2022/09/29 02:30:48;;;;;;;;;3.00;3.00;;;;;21.76;49.98;99256.42;110469;1264;13478;-58
2022/09/29 02:33:15;;;;;;;;;2.00;2.00;;;;;21.77;49.87;99259.75;110454;1264;12599;-57
2022/09/29 02:35:43;;;;;;;;;3.00;3.00;;;;;21.77;49.85;99259.48;110471;1264;13566;-61
2022/09/29 02:38:10;;;;;;;;;3.00;3.00;;;;;21.77;49.78;99259.63;110486;1264;12974;-60
2022/09/29 02:40:37;;;;;;;;;5.33;3.00;;;;;21.76;49.78;99261.17;110438;1264;14183;-60
2022/09/29 02:43:05;;;;;;;;;4.33;4.33;;;;;21.77;49.77;99266.71;110414;1264;13922;-58
2022/09/29 02:45:32;;;;;;;;;3.00;2.67;;;;;21.77;49.76;99269.94;110460;1262;13523;-57
2022/09/29 02:48:00;;;;;;;;;2.00;2.00;;;;;21.77;49.69;99269.10;110470;1264;13117;-59
2022/09/29 02:50:27;;;;;;;;;2.00;2.00;;;;;21.77;49.74;99271.28;110536;1264;13014;-60
2022/09/29 02:52:54;;;;;;;;;4.00;2.00;;;;;21.77;49.78;99273.55;110450;1265;13711;-58
2022/09/29 02:55:22;;;;;;;;;3.00;3.00;;;;;21.77;49.74;99277.66;110479;1264;16797;-60
2022/09/29 02:57:49;;;;;;;;;3.00;2.33;;;;;21.78;49.73;99281.52;110462;1264;13805;-61
2022/09/29 03:00:17;;;;;;;;;3.00;3.00;;;;;21.78;49.65;99281.89;110475;1265;13715;-60
2022/09/29 03:02:44;;;;;;;;;2.00;2.00;;;;;21.77;49.57;99282.31;110453;1264;13595;-61
2022/09/29 03:05:12;;;;;;;;;3.00;3.00;;;;;21.76;49.74;99283.49;110495;1264;12787;-60
2022/09/29 03:07:39;;;;;;;;;3.00;2.00;;;;;21.75;49.65;99284.38;110466;1264;13998;-59
2022/09/29 03:10:07;;;;;;;;;3.00;3.00;;;;;21.77;49.66;99284.21;110461;1263;13803;-57
2022/09/29 03:12:34;;;;;;;;;3.00;3.00;;;;;21.77;49.60;99286.95;110470;1264;13149;-57
2022/09/29 03:15:02;;;;;;;;;3.00;3.00;;;;;21.77;49.64;99288.91;110403;1264;13848;-58
2022/09/29 03:17:29;;;;;;;;;3.00;3.00;;;;;21.76;49.63;99290.08;110461;1264;12545;-60
2022/09/29 03:19:56;;;;;;;;;5.67;5.33;;;;;21.76;49.68;99292.94;110386;1264;13657;-60
2022/09/29 03:22:24;;;;;;;;;4.00;3.00;;;;;21.76;49.68;99294.23;110402;1264;14725;-61
2022/09/29 03:24:51;;;;;;;;;2.67;2.67;;;;;21.76;49.67;99295.48;110431;1265;13535;-61
2022/09/29 03:27:18;;;;;;;;;3.00;3.00;;;;;21.77;49.67;99297.09;110462;1264;13588;-58
2022/09/29 03:29:46;;;;;;;;;3.00;3.00;;;;;21.76;49.63;99295.58;110456;1264;13435;-60
2022/09/29 03:32:13;;;;;;;;;4.33;4.33;;;;;21.76;49.61;99297.51;110332;1264;13134;-59
2022/09/29 03:34:40;;;;;;;;;3.00;3.00;;;;;21.76;49.61;99297.26;110375;1265;12892;-58
2022/09/29 03:37:08;;;;;;;;;3.00;3.00;;;;;21.76;49.60;99300.65;110348;1264;12591;-60
2022/09/29 03:39:35;;;;;;;;;4.00;2.50;;;;;21.76;49.63;99304.51;110453;1264;12607;-60
2022/09/29 03:42:03;;;;;;;;;3.00;3.00;;;;;21.76;49.56;99306.10;110467;1265;12751;-60
2022/09/29 03:44:30;;;;;;;;;5.67;5.00;;;;;21.76;49.60;99305.55;110545;1264;12633;-58
2022/09/29 03:46:58;;;;;;;;;5.00;5.00;;;;;21.76;49.57;99308.59;110440;1264;12773;-59
2022/09/29 03:49:25;;;;;;;;;5.00;5.00;;;;;21.76;49.59;99309.37;110459;1265;13917;-60
2022/09/29 03:51:53;;;;;;;;;5.33;4.33;;;;;21.76;49.62;99309.89;110423;1264;13058;-59
2022/09/29 03:54:20;;;;;;;;;5.00;5.00;;;;;21.77;49.58;99317.30;110465;1264;14033;-58
2022/09/29 03:56:47;;;;;;;;;5.00;5.00;;;;;21.77;49.59;99316.94;110468;1264;14289;-61
2022/09/29 03:59:15;;;;;;;;;5.00;5.00;;;;;21.77;49.54;99319.07;110477;1265;13195;-58
2022/09/29 04:01:42;;;;;;;;;5.33;3.67;;;;;21.76;49.54;99319.35;110454;1264;12657;-60
2022/09/29 04:04:10;;;;;;;;;5.00;5.00;;;;;21.77;49.59;99326.20;110440;1262;13068;-60
2022/09/29 04:06:37;;;;;;;;;3.67;3.67;;;;;21.76;49.56;99328.48;110468;1264;14397;-59
2022/09/29 04:09:04;;;;;;;;;5.00;5.00;;;;;21.77;49.50;99329.48;110474;1264;13204;-58
2022/09/29 04:11:32;;;;;;;;;3.00;3.00;;;;;21.76;49.47;99330.60;110526;1264;12793;-60
2022/09/29 04:13:59;;;;;;;;;5.33;5.33;;;;;21.77;49.55;99332.71;110479;1264;12955;-59
2022/09/29 04:16:27;;;;;;;;;3.00;3.00;;;;;21.77;49.49;99334.84;110414;1264;13767;-61
2022/09/29 04:18:54;;;;;;;;;3.00;3.00;;;;;21.78;49.58;99337.70;110442;1264;13833;-59
2022/09/29 04:21:22;;;;;;;;;3.00;3.00;;;;;21.77;49.63;99339.05;110447;1264;13393;-59
2022/09/29 04:23:49;;;;;;;;;3.00;3.00;;;;;21.77;49.56;99339.80;110425;1264;12913;-59
2022/09/29 04:26:18;;;;;;;;;3.00;3.00;;;;;21.77;49.58;99345.84;110451;1264;13137;-60
2022/09/29 04:28:45;;;;;;;;;5.00;5.00;;;;;21.77;49.56;99349.62;110390;1264;12847;-60
2022/09/29 04:31:12;;;;;;;;;8.33;6.00;;;;;21.76;49.60;99351.70;110421;1265;13063;-59
2022/09/29 04:33:40;;;;;;;;;5.00;5.00;;;;;21.77;49.57;99355.45;110447;1264;13760;-60
2022/09/29 04:36:07;;;;;;;;;6.00;5.00;;;;;21.75;49.62;99351.99;110455;1264;13832;-59
2022/09/29 04:38:35;;;;;;;;;5.00;5.00;;;;;21.77;49.48;99360.52;110499;1264;13220;-58
2022/09/29 04:41:03;;;;;;;;;5.00;4.33;;;;;21.76;49.47;99358.11;110443;1264;13886;-60
2022/09/29 04:43:30;;;;;;;;;6.00;5.00;;;;;21.76;49.49;99360.30;110527;1264;17781;-59
2022/09/29 04:45:58;;;;;;;;;6.00;6.00;;;;;21.77;49.47;99363.04;110445;1264;13483;-59
2022/09/29 04:48:25;;;;;;;;;5.00;5.00;;;;;21.77;49.39;99365.43;110419;1264;13421;-57
2022/09/29 04:50:53;;;;;;;;;3.67;3.00;;;;;21.78;49.64;99366.39;110472;1265;13903;-57
2022/09/29 04:53:21;;;;;;;;;2.67;2.67;;;;;21.80;50.00;99370.02;110536;1264;12787;-59
2022/09/29 04:55:48;;;;;;;;;3.00;3.00;;;;;21.84;50.05;99368.75;110380;1263;13708;-59
2022/09/29 04:58:16;;;;;;;;;3.00;3.00;;;;;21.88;50.78;99371.16;110427;1264;14017;-61
2022/09/29 05:00:43;;;;;;;;;3.00;3.00;;;;;21.86;50.98;99371.34;110455;1264;13564;-57
2022/09/29 05:03:11;;;;;;;;;5.00;5.00;;;;;21.86;50.94;99375.79;110469;1264;13894;-59
2022/09/29 05:05:38;;;;;;;;;5.00;5.00;;;;;21.86;50.99;99376.16;110502;1265;12891;-59
2022/09/29 05:08:06;;;;;;;;;6.00;6.00;;;;;21.85;50.87;99378.89;110448;1264;13180;-62
2022/09/29 05:10:34;;;;;;;;;5.00;5.00;;;;;21.84;50.99;99380.70;110436;1264;13012;-58
2022/09/29 05:13:01;;;;;;;;;5.00;5.00;;;;;21.85;50.98;99380.13;110449;1264;13610;-60
2022/09/29 05:15:29;;;;;;;;;6.33;3.00;;;;;21.85;51.06;99376.92;110486;1264;14316;-57
2022/09/29 05:17:56;;;;;;;;;5.00;5.00;;;;;21.88;51.05;99376.62;110434;1265;21489;-55
2022/09/29 05:20:23;;;;;;;;;5.00;3.00;;;;;21.88;51.27;99384.39;110484;1264;13148;-59
2022/09/29 05:22:51;;;;;;;;;3.00;3.00;;;;;21.88;51.34;99391.65;110432;1264;13604;-59
2022/09/29 05:25:18;;;;;;;;;5.00;5.00;;;;;21.89;51.47;99400.58;110334;1264;14409;-57
2022/09/29 05:27:46;;;;;;;;;12.67;12.33;;;;;21.91;51.50;99398.93;110402;1264;14333;-59
2022/09/29 05:30:13;;;;;;;;;148.00;122.75;;;;;21.94;51.67;99402.23;110409;1264;14673;-56
2022/09/29 05:32:41;;;;;;;;;141.33;120.00;;;;;21.99;52.03;99408.05;110448;1264;10407;-58
2022/09/29 05:35:08;;;;;;;;;98.25;83.75;;;;;21.88;52.53;99414.52;110412;1265;15203;-59
2022/09/29 05:37:36;;;;;;;;;79.00;61.00;;;;;21.86;52.75;99414.98;110386;1264;14192;-60
2022/09/29 05:40:03;;;;;;;;;65.67;54.00;;;;;21.84;52.80;99420.02;110421;1264;13617;-59
2022/09/29 05:42:31;;;;;;;;;57.67;49.00;;;;;21.83;52.75;99423.42;110320;1264;14389;-60
2022/09/29 05:44:59;;;;;;;;;57.33;45.67;;;;;21.87;52.63;99418.92;110365;1265;14870;-56
2022/09/29 05:47:26;;;;;;;;;43.00;36.50;;;;;21.91;52.51;99416.34;110465;1264;13286;-61
2022/09/29 05:49:53;;;;;;;;;43.67;38.33;;;;;21.95;52.51;99419.48;110423;1264;13244;-59
2022/09/29 05:52:21;;;;;;;;;37.33;34.67;;;;;21.97;52.28;99420.18;110427;1264;13217;-56
2022/09/29 05:54:50;;;;;;;;;36.00;32.33;;;;;21.96;52.36;99420.36;110401;1264;13270;-58
2022/09/29 05:57:17;;;;;;;;;32.50;30.50;;;;;21.94;52.42;99427.33;110439;1264;13369;-61
2022/09/29 05:59:44;;;;;;;;;33.67;30.00;;;;;21.94;52.34;99429.35;110479;1264;13151;-55
2022/09/29 06:02:12;;;;;;;;;32.00;28.00;;;;;21.94;52.24;99429.52;110385;1264;13205;-59
2022/09/29 06:04:39;;;;;;;;;27.67;22.00;;;;;21.96;52.10;99430.02;110405;1265;13270;-57
2022/09/29 06:07:07;;;;;;;;;19.33;19.00;;;;;21.96;52.23;99432.14;110471;1264;13578;-60
2022/09/29 06:09:34;;;;;;;;;21.00;19.50;;;;;21.98;52.07;99430.45;110352;1264;14053;-59
2022/09/29 06:12:02;;;;;;;;;19.33;17.00;;;;;21.96;52.36;99435.64;110425;1264;13315;-56
2022/09/29 06:14:29;;;;;;;;;18.00;18.00;;;;;21.94;52.53;99438.08;110458;1265;13136;-61
2022/09/29 06:16:57;;;;;;;;;18.67;17.00;;;;;21.94;52.49;99444.54;110427;1264;13277;-61
2022/09/29 06:19:24;;;;;;;;;18.67;17.33;;;;;21.94;52.45;99449.41;110400;1264;13118;-58
2022/09/29 06:21:52;;;;;;;;;17.33;17.33;;;;;21.94;52.32;99453.15;110394;1264;13255;-59
2022/09/29 06:24:19;;;;;;;;;20.00;16.33;;;;;21.94;52.40;99451.17;110397;1264;14071;-58
2022/09/29 06:26:46;;;;;;;;;15.00;14.00;;;;;21.93;52.45;99450.95;110488;1264;13086;-61
2022/09/29 06:29:14;;;;;;;;;12.33;10.67;;;;;21.93;52.46;99447.89;110401;1263;13032;-60
2022/09/29 06:31:42;;;;;;;;;12.33;12.33;;;;;21.93;52.51;99451.29;110442;1264;12367;-58
2022/09/29 06:34:09;;;;;;;;;14.00;11.00;;;;;21.93;52.51;99451.30;110479;1264;10640;-61
2022/09/29 06:39:21;;;;;;;;;9.00;9.00;;;;;21.95;52.46;99455.65;110372;1264;13095;-59
2022/09/29 06:41:52;;;;;;;;;9.00;9.00;;;;;21.94;52.47;99455.83;110413;1265;13040;-60
2022/09/29 06:44:20;;;;;;;;;10.00;10.00;;;;;21.92;52.53;99458.89;110457;1264;12776;-59
2022/09/29 06:46:47;;;;;;;;;7.00;7.00;;;;;21.92;52.50;99460.23;110458;1265;13179;-59
2022/09/29 06:49:15;;;;;;;;;11.00;10.67;;;;;21.92;52.53;99466.07;110323;1265;13259;-59
2022/09/29 06:51:44;;;;;;;;;8.33;7.00;;;;;21.92;52.44;99466.14;110392;1264;13215;-59
2022/09/29 06:54:11;;;;;;;;;8.33;7.00;;;;;21.97;52.57;99471.67;110490;1264;13316;-59
2022/09/29 06:56:39;;;;;;;;;7.00;6.67;;;;;21.96;52.56;99472.14;110508;1264;13069;-59
2022/09/29 06:59:06;;;;;;;;;7.67;7.00;;;;;21.97;52.60;99476.88;110450;1264;13031;-59
2022/09/29 07:01:33;;;;;;;;;7.00;6.00;;;;;21.96;52.60;99474.21;110448;1264;13123;-58
2022/09/29 07:04:01;;;;;;;;;7.00;6.00;;;;;21.95;52.82;99477.99;110442;1264;13457;-58
2022/09/29 07:06:29;;;;;;;;;9.00;7.67;;;;;21.94;52.81;99477.98;110435;1264;13323;-60
2022/09/29 07:08:57;;;;;;;;;6.00;6.00;;;;;21.93;52.86;99483.02;110501;1264;13197;-58
2022/09/29 07:11:25;;;;;;;;;11.00;9.00;;;;;21.91;52.90;99492.35;110470;1264;12590;-58
2022/09/29 07:13:52;;;;;;;;;13.67;10.00;;;;;21.78;52.64;99487.98;110387;1264;12952;-59
2022/09/29 07:16:22;;;;;;;;;9.00;7.67;;;;;21.65;51.90;99487.59;110456;1264;14660;-56
2022/09/29 07:18:50;;;;;;;;;10.00;10.00;;;;;21.55;51.34;99492.96;110400;1265;12887;-58
2022/09/29 07:21:17;;;;;;;;;9.50;7.00;;;;;21.47;51.10;99496.43;110258;1264;13230;-58
2022/09/29 07:23:45;;;;;;;;;9.00;9.00;;;;;21.54;50.95;99498.00;110603;1264;13242;-59
2022/09/29 07:26:12;;;;;;;;;10.00;7.00;;;;;21.66;50.72;99500.84;110456;1264;12707;-56
2022/09/29 07:28:40;;;;;;;;;7.67;7.00;;;;;21.73;50.66;99498.73;110441;1263;13259;-60
2022/09/29 07:31:07;;;;;;;;;6.33;6.33;;;;;21.78;50.73;99497.59;110440;1262;13135;-58
2022/09/29 07:33:35;;;;;;;;;7.00;6.50;;;;;21.82;50.82;99501.77;110432;1262;13683;-57
2022/09/29 07:36:02;;;;;;;;;9.50;9.00;;;;;21.75;50.80;99505.11;110216;1262;249812;-60
2022/09/29 07:38:30;;;;;;;;;10.00;9.00;;;;;21.57;50.29;99516.13;110488;1264;10432;-60
2022/09/29 07:40:58;;;;;;;;;14.00;11.00;;;;;21.49;49.79;99514.20;110451;1263;13294;-58
2022/09/29 07:43:26;;;;;;;;;11.00;11.00;;;;;21.37;49.84;99520.75;110451;1263;12992;-57
2022/09/29 07:45:53;;;;;;;;;12.67;12.67;;;;;21.29;49.63;99520.35;110446;1264;13213;-59
2022/09/29 07:48:21;;;;;;;;;9.33;9.33;;;;;21.27;49.15;99517.15;110448;1264;13120;-59
2022/09/29 07:50:48;;;;;;;;;9.00;9.00;;;;;21.31;49.09;99521.74;110491;1264;13115;-59
2022/09/29 07:53:16;;;;;;;;;10.00;9.33;;;;;21.42;48.92;99524.94;110366;1263;14620;-58
2022/09/29 07:55:43;;;;;;;;;10.67;10.67;;;;;21.52;48.81;99528.30;110363;1265;12691;-59
2022/09/29 07:58:10;;;;;;;;;10.00;10.00;;;;;21.59;48.67;99535.54;110408;1263;12642;-59
2022/09/29 08:00:38;;;;;;;;;7.00;6.33;;;;;21.65;48.69;99535.28;110462;1264;12914;-60
2022/09/29 08:03:06;;;;;;;;;6.00;6.00;;;;;21.69;48.75;99536.88;110419;1263;13085;-60
2022/09/29 08:05:34;;;;;;;;;9.00;9.00;;;;;21.72;48.93;99539.95;110483;1264;13198;-58
2022/09/29 08:08:02;;;;;;;;;9.00;9.00;;;;;21.75;49.01;99541.56;110403;1263;13124;-60
2022/09/29 08:10:30;;;;;;;;;7.67;7.67;;;;;21.78;49.10;99546.60;110576;1264;12916;-56
2022/09/29 08:12:58;;;;;;;;;6.50;6.00;;;;;21.81;49.15;99546.29;110446;1262;13202;-59
2022/09/29 08:15:25;;;;;;;;;6.33;6.33;;;;;21.84;49.31;99547.17;110471;1262;12851;-60
2022/09/29 08:17:53;;;;;;;;;5.00;5.00;;;;;21.85;49.51;99550.32;110450;1263;13212;-60
2022/09/29 08:20:21;;;;;;;;;6.00;6.00;;;;;21.86;49.70;99549.39;110398;1264;13042;-60
2022/09/29 08:22:48;;;;;;;;;5.33;5.33;;;;;21.87;49.95;99548.52;110425;1264;13372;-59
2022/09/29 08:25:16;;;;;;;;;6.33;6.33;;;;;21.87;50.09;99553.33;110378;1264;12925;-61
2022/09/29 08:27:44;;;;;;;;;6.00;6.00;;;;;21.89;50.26;99557.63;110448;1262;13774;-58
2022/09/29 08:30:11;;;;;;;;;4.33;3.67;;;;;21.89;50.17;99556.11;110433;1264;13244;-59
2022/09/29 08:32:39;;;;;;;;;7.00;7.00;;;;;21.90;50.01;99552.80;110480;1264;13108;-59
2022/09/29 08:35:06;;;;;;;;;6.67;6.67;;;;;21.89;49.75;99559.92;110470;1264;13211;-59
2022/09/29 08:37:34;;;;;;;;;5.33;5.33;;;;;21.87;49.96;99564.20;110414;1262;13194;-59
2022/09/29 08:40:01;;;;;;;;;7.00;6.67;;;;;21.81;50.51;99569.59;110439;1265;13112;-59
2022/09/29 08:42:29;;;;;;;;;5.00;5.00;;;;;21.79;50.46;99571.81;110439;1264;13562;-60
2022/09/29 08:44:57;;;;;;;;;6.00;6.00;;;;;21.78;49.99;99576.35;110471;1264;13336;-60
2022/09/29 08:47:25;;;;;;;;;9.00;7.00;;;;;21.74;49.81;99581.09;110508;1264;13076;-57
2022/09/29 08:49:52;;;;;;;;;14.00;14.00;;;;;21.61;49.25;99586.67;110407;1262;13376;-61
2022/09/29 08:52:20;;;;;;;;;15.00;14.00;;;;;21.45;48.44;99587.27;110447;1263;12983;-58
2022/09/29 08:54:47;;;;;;;;;16.33;15.00;;;;;21.33;48.10;99588.55;110452;1262;13403;-61
2022/09/29 08:57:18;;;;;;;;;12.00;12.00;;;;;21.29;47.67;99588.39;110455;1264;13437;-58
2022/09/29 08:59:46;;;;;;;;;11.33;11.33;;;;;21.28;47.35;99590.80;110444;1265;12935;-59
2022/09/29 09:02:13;;;;;;;;;11.00;11.00;;;;;21.27;47.15;99591.02;110422;1264;13104;-60
2022/09/29 09:04:40;;;;;;;;;15.00;14.00;;;;;21.24;46.92;99593.94;110448;1264;13189;-60
2022/09/29 09:07:08;;;;;;;;;11.00;10.67;;;;;21.21;46.59;99597.73;110461;1264;13389;-58
2022/09/29 09:09:35;;;;;;;;;13.33;12.00;;;;;21.20;46.76;99600.12;110427;1264;13311;-58
2022/09/29 09:12:02;;;;;;;;;15.00;14.00;;;;;21.15;46.42;99602.38;110441;1263;13448;-59
2022/09/29 09:14:30;;;;;;;;;15.50;13.00;;;;;20.97;46.24;99606.32;110487;1264;13253;-60
2022/09/29 09:16:57;;;;;;;;;18.33;15.67;;;;;20.71;46.42;99610.85;110433;1264;12925;-59
2022/09/29 09:19:24;;;;;;;;;21.00;16.00;;;;;20.47;46.60;99611.69;110458;1264;13858;-60
2022/09/29 09:21:52;;;;;;;;;17.67;16.67;;;;;20.32;46.68;99618.34;110397;1262;12876;-61
2022/09/29 09:24:20;;;;;;;;;19.00;16.33;;;;;20.25;46.56;99618.30;110474;1262;18102;-60
2022/09/29 09:26:48;;;;;;;;;15.33;13.00;;;;;20.15;46.65;99619.71;110324;1265;13169;-58
2022/09/29 09:29:15;;;;;;;;;17.00;17.00;;;;;20.14;46.52;99618.64;110378;1264;13211;-59
2022/09/29 09:31:43;;;;;;;;;16.00;16.00;;;;;20.15;46.36;99621.25;110360;1262;11654;-56
2022/09/29 09:34:10;;;;;;;;;14.00;13.00;;;;;20.12;46.28;99622.40;110440;1262;12905;-57
2022/09/29 09:36:39;;;;;;;;;16.67;16.67;;;;;20.11;46.26;99623.86;110444;1264;14161;-56
2022/09/29 09:39:07;;;;;;;;;18.00;15.67;;;;;20.10;46.24;99628.43;110413;1264;13364;-61
2022/09/29 09:41:34;;;;;;;;;13.00;12.33;;;;;20.08;46.16;99630.62;110443;1264;13186;-59
2022/09/29 09:44:01;;;;;;;;;13.33;13.00;;;;;20.06;46.19;99630.36;110409;1264;13272;-60
2022/09/29 09:46:29;;;;;;;;;15.33;14.00;;;;;20.02;46.25;99631.55;110531;1264;18012;-60
2022/09/29 09:48:56;;;;;;;;;20.00;16.50;;;;;20.01;46.33;99633.64;110399;1262;13157;-58
2022/09/29 09:51:24;;;;;;;;;18.67;17.00;;;;;20.01;46.28;99640.28;110438;1263;13139;-61
2022/09/29 09:53:51;;;;;;;;;16.00;15.67;;;;;20.04;46.22;99641.27;110437;1264;13187;-58
2022/09/29 09:56:18;;;;;;;;;16.00;14.00;;;;;20.03;46.17;99645.02;110413;1264;13708;-59
2022/09/29 09:58:46;;;;;;;;;14.00;13.67;;;;;20.00;46.17;99649.17;110426;1264;13547;-59
2022/09/29 10:01:13;;;;;;;;;13.00;13.00;;;;;19.92;46.32;99650.42;110405;1262;13151;-58
2022/09/29 10:03:41;;;;;;;;;15.33;14.00;;;;;19.85;46.46;99655.84;110304;1265;13099;-58
2022/09/29 10:06:08;;;;;;;;;13.33;13.00;;;;;19.81;46.43;99661.43;111108;1262;13105;-57
2022/09/29 10:08:38;;;;;;;;;12.00;10.00;;;;;19.86;46.36;99660.59;110408;1264;13031;-59
2022/09/29 10:11:06;;;;;;;;;13.00;12.33;;;;;19.89;46.10;99665.39;110462;1264;13203;-59
2022/09/29 10:13:34;;;;;;;;;12.00;10.00;;;;;19.93;46.17;99668.20;110391;1262;13195;-60
2022/09/29 10:16:01;;;;;;;;;9.00;9.00;;;;;20.28;45.91;99669.55;110428;1262;12737;-61
2022/09/29 10:18:29;;;;;;;;;8.33;8.00;;;;;20.60;45.67;99672.41;110437;1264;13075;-60
2022/09/29 10:20:56;;;;;;;;;8.33;8.00;;;;;20.81;45.40;99667.31;110456;1265;12712;-60
2022/09/29 10:23:23;;;;;;;;;8.33;8.33;;;;;20.93;45.26;99668.95;110491;1264;13071;-60
2022/09/29 10:25:51;;;;;;;;;10.00;10.00;;;;;20.79;45.30;99672.58;110442;1264;13032;-60
2022/09/29 10:28:18;;;;;;;;;12.00;12.00;;;;;20.57;45.50;99673.14;110373;1262;12808;-58
2022/09/29 10:30:46;;;;;;;;;13.67;12.00;;;;;20.39;45.54;99678.38;110465;1264;13199;-59
2022/09/29 10:33:13;;;;;;;;;11.00;11.00;;;;;20.24;45.85;99676.13;110451;1264;12768;-59
2022/09/29 10:35:41;;;;;;;;;12.00;12.00;;;;;20.20;45.75;99680.46;110472;1264;13196;-58
2022/09/29 10:38:11;;;;;;;;;12.00;10.00;;;;;20.14;45.78;99681.05;110429;1264;13236;-59
2022/09/29 10:40:41;;;;;;;;;12.00;9.67;;;;;20.14;45.67;99686.77;110377;1262;13144;-61
2022/09/29 10:43:08;;;;;;;;;9.00;9.00;;;;;20.26;45.55;99685.65;110434;1265;12888;-59
2022/09/29 10:45:35;;;;;;;;;9.50;8.00;;;;;20.54;45.41;99684.05;110482;1262;13899;-61
2022/09/29 10:48:03;;;;;;;;;8.33;8.33;;;;;20.81;45.22;99680.73;110354;1264;16646;-60
2022/09/29 10:50:31;;;;;;;;;8.67;8.00;;;;;20.94;45.08;99686.63;111266;1265;13178;-60
2022/09/29 10:52:58;;;;;;;;;9.00;8.00;;;;;21.02;45.00;99689.61;110367;1264;13660;-59
2022/09/29 10:55:25;;;;;;;;;8.00;8.00;;;;;21.08;45.05;99693.77;110337;1265;15212;-60
2022/09/29 10:57:53;;;;;;;;;6.00;5.67;;;;;21.13;45.16;99697.31;110412;1264;14814;-61
2022/09/29 11:00:21;;;;;;;;;8.00;6.67;;;;;21.16;45.26;99698.13;110408;1263;14178;-61
2022/09/29 11:02:48;;;;;;;;;6.00;6.00;;;;;21.19;45.32;99700.02;110229;1264;12855;-58
2022/09/29 11:05:15;;;;;;;;;5.33;5.33;;;;;21.22;45.49;99703.21;110390;1264;13393;-62
2022/09/29 11:07:43;;;;;;;;;6.00;6.00;;;;;21.23;45.51;99703.80;110393;1262;13053;-61
2022/09/29 11:10:10;;;;;;;;;8.00;5.33;;;;;21.25;45.62;99707.08;110435;1264;14883;-59
2022/09/29 11:12:38;;;;;;;;;6.00;6.00;;;;;21.26;45.75;99708.42;110429;1263;14642;-60
2022/09/29 11:15:06;;;;;;;;;8.00;6.00;;;;;21.30;45.94;99712.98;110416;1264;13226;-59
2022/09/29 11:17:33;;;;;;;;;5.00;5.00;;;;;21.34;45.91;99714.98;110428;1265;13216;-61
2022/09/29 11:20:01;;;;;;;;;6.00;6.00;;;;;21.34;46.23;99711.62;110461;1265;14256;-60
2022/09/29 11:22:29;;;;;;;;;6.00;6.00;;;;;21.37;46.45;99713.77;110458;1264;14675;-57